Time;durP1;ratioP1;P1;durP2;ratioP2;P2;SDS_P1;SDS_P2;PMS_P1;PMS_P2;Temp;Humidity;BMP_temperature;BMP_pressure;BME280_temperature;BME280_humidity;BME280_pressure;Samples;Min_cycle;Max_cycle;Signal;HPM_P1;HPM_P2
2022/04/23 00:00:09;;;;;;;;;;;;;;;;;;1035562;28;5403;-44
2022/04/23 00:00:59;;;;;;;;;;;;;;;;;;1033927;28;4063;-44
2022/04/23 00:01:29;;;;;;;;;;;;;;;;;;1036829;28;3593;-45
2022/04/23 00:02:00;;;;;;;;;;;;;;;;;;1036570;28;3923;-46
2022/04/23 00:02:30;;;;;;;;;;;;;;;;;;1038108;28;4078;-47
2022/04/23 00:03:01;;;;;;;;;;;;;;;;;;1038280;28;3835;-47
2022/04/23 00:03:31;;;;;;;;;;;;;;;;;;1036560;28;4184;-44
2022/04/23 00:04:01;;;;;;;;;;;;;;;;;;1036842;28;3810;-48
2022/04/23 00:04:32;;;;;;;;;;;;;;;;;;1035443;28;3756;-44
2022/04/23 00:05:03;;;;;;;;;;;;;;;;;;1036830;28;5314;-47
2022/04/23 00:05:34;;;;;;;;;;;;;;;;;;1039842;28;3572;-46
2022/04/23 00:06:04;;;;;;;;;;;;;;;;;;1038380;28;5657;-48
2022/04/23 00:06:35;;;;;;;;;;;;;;;;;;1038320;28;3871;-45
2022/04/23 00:07:05;;;;;;;;;;;;;;;;;;1039456;28;3846;-43
2022/04/23 00:07:35;;;;;;;;;;;;;;;;;;1037990;28;3983;-48
2022/04/23 00:08:06;;;;;;;;;;;;;;;;;;1038714;28;3992;-46
2022/04/23 00:08:36;;;;;;;;;;;;;;;;;;1038117;28;3914;-46
2022/04/23 00:09:06;;;;;;;;;;;;;;;;;;1038793;28;8435;-47
2022/04/23 00:09:37;;;;;;;;;;;;;;;;;;1039508;28;3866;-44
2022/04/23 00:10:08;;;;;;;;;;;;;;;;;;1038897;28;5297;-47
2022/04/23 00:10:39;;;;;;;;;;;;;;;;;;1038436;28;3931;-45
2022/04/23 00:11:09;;;;;;;;;;;;;;;;;;1037933;28;3931;-47
2022/04/23 00:11:39;;;;;;;;;;;;;;;;;;1038714;28;3901;-45
2022/04/23 00:12:10;;;;;;;;;;;;;;;;;;1040259;28;4148;-44
2022/04/23 00:12:42;;;;;;;;;;;;;;;;;;1038850;28;4035;-45
2022/04/23 00:13:13;;;;;;;;;;;;;;;;;;1039335;28;3432;-47
2022/04/23 00:13:43;;;;;;;;;;;;;;;;;;1039884;28;3998;-46
2022/04/23 00:14:13;;;;;;;;;;;;;;;;;;1038609;28;3430;-45
2022/04/23 00:14:43;;;;;;;;;;;;;;;;;;1038469;28;4058;-45
2022/04/23 00:15:14;;;;;;;;;;;;;;;;;;1038934;28;3687;-45
2022/04/23 00:15:44;;;;;;;;;;;;;;;;;;1039923;28;4412;-47
2022/04/23 00:16:15;;;;;;;;;;;;;;;;;;1035218;28;4135;-46
2022/04/23 00:16:45;;;;;;;;;;;;;;;;;;1036240;28;3938;-47
2022/04/23 00:17:16;;;;;;;;;;;;;;;;;;1036337;28;3767;-47
2022/04/23 00:17:47;;;;;;;;;;;;;;;;;;1036805;28;4217;-48
2022/04/23 00:18:18;;;;;;;;;;;;;;;;;;1039451;28;4485;-46
2022/04/23 00:18:48;;;;;;;;;;;;;;;;;;1038732;28;4727;-49
2022/04/23 00:19:19;;;;;;;;;;;;;;;;;;1040387;28;3804;-48
2022/04/23 00:19:49;;;;;;;;;;;;;;;;;;1038131;28;3982;-48
2022/04/23 00:20:23;;;;;;;;;;;;;;;;;;1039912;28;3597;-49
2022/04/23 00:20:53;;;;;;;;;;;;;;;;;;1039996;28;4391;-45
2022/04/23 00:21:23;;;;;;;;;;;;;;;;;;1040716;28;3417;-44
2022/04/23 00:21:54;;;;;;;;;;;;;;;;;;1039262;28;3893;-46
2022/04/23 00:22:24;;;;;;;;;;;;;;;;;;1040307;28;3638;-45
2022/04/23 00:22:54;;;;;;;;;;;;;;;;;;1038850;28;3888;-48
2022/04/23 00:23:25;;;;;;;;;;;;;;;;;;1041566;28;3479;-48
2022/04/23 00:23:56;;;;;;;;;;;;;;;;;;1038543;28;3840;-45
2022/04/23 00:24:26;;;;;;;;;;;;;;;;;;1039225;28;3758;-49
2022/04/23 00:24:57;;;;;;;;;;;;;;;;;;1039820;28;4415;-43
2022/04/23 00:25:28;;;;;;;;;;;;;;;;;;1040353;28;3586;-47
2022/04/23 00:25:58;;;;;;;;;;;;;;;;;;1039843;28;4595;-45
2022/04/23 00:26:29;;;;;;;;;;;;;;;;;;1039697;28;3496;-45
2022/04/23 00:26:59;;;;;;;;;;;;;;;;;;1038153;28;3970;-46
2022/04/23 00:27:29;;;;;;;;;;;;;;;;;;1040068;28;3541;-46
2022/04/23 00:28:00;;;;;;;;;;;;;;;;;;1039219;28;3894;-45
2022/04/23 00:28:30;;;;;;;;;;;;;;;;;;1039615;28;3614;-46
2022/04/23 00:29:00;;;;;;;;;;;;;;;;;;1037858;28;4189;-46
2022/04/23 00:29:31;;;;;;;;;;;;;;;;;;1039577;28;3759;-49
2022/04/23 00:30:01;;;;;;;;;;;;;;;;;;1039035;28;4099;-46
2022/04/23 00:30:32;;;;;;;;;;;;;;;;;;1038511;28;3876;-48
2022/04/23 00:31:02;;;;;;;;;;;;;;;;;;1040383;28;4014;-45
2022/04/23 00:31:33;;;;;;;;;;;;;;;;;;1040239;28;3617;-42
2022/04/23 00:32:03;;;;;;;;;;;;;;;;;;1039774;28;5063;-45
2022/04/23 00:32:34;;;;;;;;;;;;;;;;;;1036179;28;3531;-45
2022/04/23 00:33:04;;;;;;;;;;;;;;;;;;1035161;28;4388;-51
2022/04/23 00:33:37;;;;;;;;;;;;;;;;;;1035238;28;3571;-49
2022/04/23 00:34:07;;;;;;;;;;;;;;;;;;1035795;28;4218;-45
2022/04/23 00:34:38;;;;;;;;;;;;;;;;;;1039619;28;3872;-42
2022/04/23 00:35:12;;;;;;;;;;;;;;;;;;1039201;28;3788;-46
2022/04/23 00:35:44;;;;;;;;;;;;;;;;;;1040069;28;3917;-43
2022/04/23 00:36:14;;;;;;;;;;;;;;;;;;1036958;28;3480;-51
2022/04/23 00:36:51;;;;;;;;;;;;;;;;;;1035061;28;5720;-48
2022/04/23 00:37:21;;;;;;;;;;;;;;;;;;1035236;28;3430;-49
2022/04/23 00:37:52;;;;;;;;;;;;;;;;;;1036629;28;4765;-45
2022/04/23 00:38:24;;;;;;;;;;;;;;;;;;1036386;28;3354;-46
2022/04/23 00:38:55;;;;;;;;;;;;;;;;;;1035374;28;5844;-43
2022/04/23 00:39:25;;;;;;;;;;;;;;;;;;1035056;28;3980;-43
2022/04/23 00:39:56;;;;;;;;;;;;;;;;;;1035244;28;4311;-47
2022/04/23 00:40:27;;;;;;;;;;;;;;;;;;1038915;28;4053;-46
2022/04/23 00:40:57;;;;;;;;;;;;;;;;;;1038878;28;3906;-44
2022/04/23 00:41:51;;;;;;;;;;;;;;;;;;1039818;28;3714;-43
2022/04/23 00:42:22;;;;;;;;;;;;;;;;;;1037189;28;3919;-49
2022/04/23 00:42:55;;;;;;;;;;;;;;;;;;1038300;28;4521;-47
2022/04/23 00:43:27;;;;;;;;;;;;;;;;;;1037087;28;3456;-46
2022/04/23 00:43:57;;;;;;;;;;;;;;;;;;1035330;28;3959;-46
2022/04/23 00:44:28;;;;;;;;;;;;;;;;;;1037421;28;3739;-49
2022/04/23 00:44:58;;;;;;;;;;;;;;;;;;1036141;28;4371;-46
2022/04/23 00:45:28;;;;;;;;;;;;;;;;;;1040319;28;4023;-48
2022/04/23 00:45:58;;;;;;;;;;;;;;;;;;1038880;28;4129;-44
2022/04/23 00:46:42;;;;;;;;;;;;;;;;;;1036679;28;3438;-44
2022/04/23 00:47:21;;;;;;;;;;;;;;;;;;1040781;28;3769;-44
2022/04/23 00:47:51;;;;;;;;;;;;;;;;;;1037871;28;4521;-45
2022/04/23 00:48:22;;;;;;;;;;;;;;;;;;1037019;28;3601;-49
2022/04/23 00:48:52;;;;;;;;;;;;;;;;;;1034280;28;4429;-50
2022/04/23 00:49:22;;;;;;;;;;;;;;;;;;1036620;28;3525;-45
2022/04/23 00:49:53;;;;;;;;;;;;;;;;;;1036326;28;4351;-48
2022/04/23 00:50:23;;;;;;;;;;;;;;;;;;1036610;28;3599;-45
2022/04/23 00:50:56;;;;;;;;;;;;;;;;;;1035260;28;3999;-49
2022/04/23 00:51:28;;;;;;;;;;;;;;;;;;1033599;28;3813;-49
2022/04/23 00:51:58;;;;;;;;;;;;;;;;;;1034067;28;4364;-49
2022/04/23 00:52:28;;;;;;;;;;;;;;;;;;1035275;28;3842;-51
2022/04/23 00:53:01;;;;;;;;;;;;;;;;;;1035156;28;4297;-46
2022/04/23 00:53:31;;;;;;;;;;;;;;;;;;1035632;28;3616;-46
2022/04/23 00:54:09;;;;;;;;;;;;;;;;;;1034851;28;4047;-47
2022/04/23 00:54:40;;;;;;;;;;;;;;;;;;1035322;28;3884;-48
2022/04/23 00:55:10;;;;;;;;;;;;;;;;;;1035744;28;3692;-42
2022/04/23 00:55:40;;;;;;;;;;;;;;;;;;1034014;28;5558;-45
2022/04/23 00:56:11;;;;;;;;;;;;;;;;;;1035619;28;3793;-43
2022/04/23 00:56:41;;;;;;;;;;;;;;;;;;1033156;28;4076;-46
2022/04/23 00:57:11;;;;;;;;;;;;;;;;;;1037478;28;3874;-48
2022/04/23 00:57:42;;;;;;;;;;;;;;;;;;1036296;28;4282;-43
2022/04/23 00:58:16;;;;;;;;;;;;;;;;;;1037452;28;3926;-42
2022/04/23 00:58:46;;;;;;;;;;;;;;;;;;1036205;28;4362;-44
2022/04/23 00:59:17;;;;;;;;;;;;;;;;;;1038380;28;3644;-45
2022/04/23 00:59:49;;;;;;;;;;;;;;;;;;1038737;28;4112;-44
2022/04/23 01:00:19;;;;;;;;;;;;;;;;;;1036067;28;3536;-46
2022/04/23 01:00:49;;;;;;;;;;;;;;;;;;1035551;28;5944;-48
2022/04/23 01:01:23;;;;;;;;;;;;;;;;;;1036297;28;3545;-44
2022/04/23 01:01:53;;;;;;;;;;;;;;;;;;1033231;28;4014;-46
2022/04/23 01:02:24;;;;;;;;;;;;;;;;;;1035458;28;3876;-49
2022/04/23 01:02:54;;;;;;;;;;;;;;;;;;1034296;28;3815;-46
2022/04/23 01:03:25;;;;;;;;;;;;;;;;;;1035306;28;3540;-46
2022/04/23 01:03:57;;;;;;;;;;;;;;;;;;1034504;28;4225;-45
2022/04/23 01:04:30;;;;;;;;;;;;;;;;;;1036510;28;3823;-50
2022/04/23 01:05:01;;;;;;;;;;;;;;;;;;1035164;28;4219;-44
2022/04/23 01:05:31;;;;;;;;;;;;;;;;;;1035672;28;3890;-47
2022/04/23 01:06:02;;;;;;;;;;;;;;;;;;1038107;28;4208;-44
2022/04/23 01:06:34;;;;;;;;;;;;;;;;;;1039152;28;3870;-44
2022/04/23 01:07:05;;;;;;;;;;;;;;;;;;1036591;28;4534;-45
2022/04/23 01:07:41;;;;;;;;;;;;;;;;;;1035811;28;3377;-45
2022/04/23 01:08:14;;;;;;;;;;;;;;;;;;1033637;28;4135;-48
2022/04/23 01:08:45;;;;;;;;;;;;;;;;;;1033964;28;4548;-44
2022/04/23 01:09:15;;;;;;;;;;;;;;;;;;1037096;28;3669;-48
2022/04/23 01:09:47;;;;;;;;;;;;;;;;;;1035231;28;4385;-46
2022/04/23 01:10:18;;;;;;;;;;;;;;;;;;1038303;28;3546;-43
2022/04/23 01:10:48;;;;;;;;;;;;;;;;;;1030841;28;3891;-45
2022/04/23 01:11:19;;;;;;;;;;;;;;;;;;1036908;28;3659;-45
2022/04/23 01:11:50;;;;;;;;;;;;;;;;;;1034181;28;4470;-45
2022/04/23 01:12:21;;;;;;;;;;;;;;;;;;1034390;28;3376;-43
2022/04/23 01:12:51;;;;;;;;;;;;;;;;;;1034757;28;3899;-44
2022/04/23 01:13:25;;;;;;;;;;;;;;;;;;1035498;28;5770;-45
2022/04/23 01:13:56;;;;;;;;;;;;;;;;;;1034620;28;3784;-48
2022/04/23 01:14:27;;;;;;;;;;;;;;;;;;1035205;28;3391;-49
2022/04/23 01:14:58;;;;;;;;;;;;;;;;;;1035284;28;4662;-49
2022/04/23 01:15:28;;;;;;;;;;;;;;;;;;1035579;28;3595;-45
2022/04/23 01:15:59;;;;;;;;;;;;;;;;;;1034765;28;3934;-47
2022/04/23 01:16:29;;;;;;;;;;;;;;;;;;1034989;28;3943;-45
2022/04/23 01:17:06;;;;;;;;;;;;;;;;;;1030292;28;3890;-43
2022/04/23 01:17:36;;;;;;;;;;;;;;;;;;1031457;28;4182;-47
2022/04/23 01:18:07;;;;;;;;;;;;;;;;;;1032008;28;3939;-47
2022/04/23 01:18:41;;;;;;;;;;;;;;;;;;1035529;28;4103;-49
2022/04/23 01:19:12;;;;;;;;;;;;;;;;;;1038178;28;5153;-45
2022/04/23 01:19:42;;;;;;;;;;;;;;;;;;1034697;28;3902;-43
2022/04/23 01:20:13;;;;;;;;;;;;;;;;;;1036002;28;3499;-44
2022/04/23 01:20:43;;;;;;;;;;;;;;;;;;1035209;28;3862;-47
2022/04/23 01:21:14;;;;;;;;;;;;;;;;;;1036233;28;3541;-46
2022/04/23 01:21:44;;;;;;;;;;;;;;;;;;1035269;28;3794;-46
2022/04/23 01:22:15;;;;;;;;;;;;;;;;;;1030513;28;4250;-45
2022/04/23 01:22:45;;;;;;;;;;;;;;;;;;1031241;28;3954;-44
2022/04/23 01:23:16;;;;;;;;;;;;;;;;;;1032868;28;4970;-48
2022/04/23 01:23:47;;;;;;;;;;;;;;;;;;1032038;28;4180;-49
2022/04/23 01:24:18;;;;;;;;;;;;;;;;;;1037626;28;3495;-47
2022/04/23 01:24:50;;;;;;;;;;;;;;;;;;1035970;28;4681;-43
2022/04/23 01:25:22;;;;;;;;;;;;;;;;;;1035942;28;3280;-46
2022/04/23 01:25:54;;;;;;;;;;;;;;;;;;1034553;28;4387;-44
2022/04/23 01:26:28;;;;;;;;;;;;;;;;;;1036021;28;3821;-46
2022/04/23 01:26:59;;;;;;;;;;;;;;;;;;1034683;28;3822;-48
2022/04/23 01:27:29;;;;;;;;;;;;;;;;;;1036291;28;4277;-45
2022/04/23 01:27:59;;;;;;;;;;;;;;;;;;1034748;28;5029;-46
2022/04/23 01:28:30;;;;;;;;;;;;;;;;;;1035420;28;3721;-44
2022/04/23 01:29:01;;;;;;;;;;;;;;;;;;1036429;28;4252;-42
2022/04/23 01:29:31;;;;;;;;;;;;;;;;;;1035820;28;3877;-45
2022/04/23 01:30:02;;;;;;;;;;;;;;;;;;1033511;28;5953;-49
2022/04/23 01:30:32;;;;;;;;;;;;;;;;;;1034573;28;3698;-43
2022/04/23 01:31:04;;;;;;;;;;;;;;;;;;1035375;28;4224;-44
2022/04/23 01:31:34;;;;;;;;;;;;;;;;;;1036161;28;3442;-44
2022/04/23 01:32:05;;;;;;;;;;;;;;;;;;1034131;28;5688;-50
2022/04/23 01:32:35;;;;;;;;;;;;;;;;;;1034612;28;4047;-45
2022/04/23 01:33:05;;;;;;;;;;;;;;;;;;1035029;28;3790;-44
2022/04/23 01:33:36;;;;;;;;;;;;;;;;;;1035010;28;3723;-43
2022/04/23 01:34:06;;;;;;;;;;;;;;;;;;1035025;28;3901;-47
2022/04/23 01:34:36;;;;;;;;;;;;;;;;;;1034079;28;4104;-42
2022/04/23 01:35:07;;;;;;;;;;;;;;;;;;1036028;28;3520;-46
2022/04/23 01:35:37;;;;;;;;;;;;;;;;;;1034885;28;4003;-46
2022/04/23 01:36:07;;;;;;;;;;;;;;;;;;1034747;28;3951;-45
2022/04/23 01:36:38;;;;;;;;;;;;;;;;;;1035934;28;3903;-48
2022/04/23 01:37:08;;;;;;;;;;;;;;;;;;1033301;28;4263;-42
2022/04/23 01:37:38;;;;;;;;;;;;;;;;;;1036117;28;4074;-45
2022/04/23 01:38:08;;;;;;;;;;;;;;;;;;1034401;28;5839;-44
2022/04/23 01:38:39;;;;;;;;;;;;;;;;;;1034497;28;3802;-44
2022/04/23 01:39:09;;;;;;;;;;;;;;;;;;1035295;28;3478;-44
2022/04/23 01:39:40;;;;;;;;;;;;;;;;;;1033477;28;4094;-45
2022/04/23 01:40:11;;;;;;;;;;;;;;;;;;1035851;28;3478;-46
2022/04/23 01:40:42;;;;;;;;;;;;;;;;;;1035550;28;5194;-47
2022/04/23 01:41:12;;;;;;;;;;;;;;;;;;1036597;28;3825;-45
2022/04/23 01:41:43;;;;;;;;;;;;;;;;;;1035931;28;4337;-48
2022/04/23 01:42:17;;;;;;;;;;;;;;;;;;1032298;28;3711;-46
2022/04/23 01:42:47;;;;;;;;;;;;;;;;;;1030610;28;4029;-44
2022/04/23 01:43:18;;;;;;;;;;;;;;;;;;1031934;28;3555;-48
2022/04/23 01:43:48;;;;;;;;;;;;;;;;;;1031750;28;4083;-42
2022/04/23 01:44:18;;;;;;;;;;;;;;;;;;1035307;28;3436;-47
2022/04/23 01:44:49;;;;;;;;;;;;;;;;;;1034768;28;4601;-45
2022/04/23 01:45:20;;;;;;;;;;;;;;;;;;1036934;28;5076;-45
2022/04/23 01:45:50;;;;;;;;;;;;;;;;;;1034567;28;3938;-48
2022/04/23 01:46:20;;;;;;;;;;;;;;;;;;1034189;28;3588;-44
2022/04/23 01:47:05;;;;;;;;;;;;;;;;;;1036073;28;4088;-49
2022/04/23 01:47:42;;;;;;;;;;;;;;;;;;1035257;28;3832;-49
2022/04/23 01:48:12;;;;;;;;;;;;;;;;;;1037533;28;5955;-44
2022/04/23 01:48:42;;;;;;;;;;;;;;;;;;1034351;28;4050;-46
2022/04/23 01:49:13;;;;;;;;;;;;;;;;;;1034662;28;3481;-47
2022/04/23 01:49:44;;;;;;;;;;;;;;;;;;1035370;28;4093;-46
2022/04/23 01:50:14;;;;;;;;;;;;;;;;;;1031517;28;4057;-47
2022/04/23 01:50:44;;;;;;;;;;;;;;;;;;1027363;28;5352;-48
2022/04/23 01:51:15;;;;;;;;;;;;;;;;;;1032150;28;3463;-46
2022/04/23 01:51:45;;;;;;;;;;;;;;;;;;1032415;28;3931;-49
2022/04/23 01:52:15;;;;;;;;;;;;;;;;;;1036162;28;3478;-42
2022/04/23 01:52:46;;;;;;;;;;;;;;;;;;1034931;28;4389;-46
2022/04/23 01:53:18;;;;;;;;;;;;;;;;;;1036790;28;3707;-49
2022/04/23 01:53:48;;;;;;;;;;;;;;;;;;1036501;28;4318;-48
2022/04/23 01:54:18;;;;;;;;;;;;;;;;;;1036496;28;3739;-43
2022/04/23 01:54:49;;;;;;;;;;;;;;;;;;1038430;28;4207;-48
2022/04/23 01:55:19;;;;;;;;;;;;;;;;;;1039694;28;3494;-44
2022/04/23 01:55:55;;;;;;;;;;;;;;;;;;1034044;28;4593;-46
2022/04/23 01:56:26;;;;;;;;;;;;;;;;;;1035185;28;4407;-50
2022/04/23 01:56:57;;;;;;;;;;;;;;;;;;1034372;28;4038;-43
2022/04/23 01:57:27;;;;;;;;;;;;;;;;;;1036073;28;4510;-46
2022/04/23 01:57:57;;;;;;;;;;;;;;;;;;1039078;28;6909;-43
2022/04/23 01:58:28;;;;;;;;;;;;;;;;;;1040386;28;3448;-50
2022/04/23 01:58:58;;;;;;;;;;;;;;;;;;1039153;28;4029;-49
2022/04/23 01:59:28;;;;;;;;;;;;;;;;;;1040284;28;4354;-43
2022/04/23 01:59:59;;;;;;;;;;;;;;;;;;1035854;28;3861;-44
2022/04/23 02:00:29;;;;;;;;;;;;;;;;;;1041074;28;3882;-43
2022/04/23 02:01:00;;;;;;;;;;;;;;;;;;1038584;28;3791;-45
2022/04/23 02:01:30;;;;;;;;;;;;;;;;;;1039370;28;4051;-44
2022/04/23 02:02:00;;;;;;;;;;;;;;;;;;1041954;28;3995;-45
2022/04/23 02:02:31;;;;;;;;;;;;;;;;;;1038211;28;4028;-46
2022/04/23 02:03:01;;;;;;;;;;;;;;;;;;1039460;28;4089;-45
2022/04/23 02:03:34;;;;;;;;;;;;;;;;;;1035851;28;4869;-46
2022/04/23 02:04:08;;;;;;;;;;;;;;;;;;1032000;28;4732;-45
2022/04/23 02:04:38;;;;;;;;;;;;;;;;;;1032829;28;4291;-43
2022/04/23 02:05:09;;;;;;;;;;;;;;;;;;1032710;28;3432;-45
2022/04/23 02:05:39;;;;;;;;;;;;;;;;;;1036830;28;4436;-43
2022/04/23 02:06:09;;;;;;;;;;;;;;;;;;1038826;28;3370;-42
2022/04/23 02:06:40;;;;;;;;;;;;;;;;;;1039053;28;5631;-46
2022/04/23 02:07:10;;;;;;;;;;;;;;;;;;1038886;28;3475;-48
2022/04/23 02:07:41;;;;;;;;;;;;;;;;;;1038880;28;3860;-47
2022/04/23 02:08:15;;;;;;;;;;;;;;;;;;1040367;28;3459;-49
2022/04/23 02:08:45;;;;;;;;;;;;;;;;;;1039236;28;4237;-47
2022/04/23 02:09:17;;;;;;;;;;;;;;;;;;1038645;28;3647;-45
2022/04/23 02:09:54;;;;;;;;;;;;;;;;;;1038794;28;3877;-43
2022/04/23 02:10:24;;;;;;;;;;;;;;;;;;1038966;28;3785;-45
2022/04/23 02:10:55;;;;;;;;;;;;;;;;;;1039630;28;4582;-48
2022/04/23 02:11:25;;;;;;;;;;;;;;;;;;1039380;28;4642;-46
2022/04/23 02:11:56;;;;;;;;;;;;;;;;;;1038880;28;3899;-48
2022/04/23 02:12:26;;;;;;;;;;;;;;;;;;1038731;28;3733;-43
2022/04/23 02:12:57;;;;;;;;;;;;;;;;;;1036976;28;5231;-48
2022/04/23 02:13:28;;;;;;;;;;;;;;;;;;1040347;28;3419;-48
2022/04/23 02:13:58;;;;;;;;;;;;;;;;;;1038151;28;4720;-45
2022/04/23 02:14:28;;;;;;;;;;;;;;;;;;1036527;28;3499;-48
2022/04/23 02:14:59;;;;;;;;;;;;;;;;;;1035607;28;4572;-43
2022/04/23 02:15:29;;;;;;;;;;;;;;;;;;1036618;28;3453;-45
2022/04/23 02:15:59;;;;;;;;;;;;;;;;;;1035922;28;3808;-48
2022/04/23 02:16:30;;;;;;;;;;;;;;;;;;1039550;28;3589;-45
2022/04/23 02:17:01;;;;;;;;;;;;;;;;;;1038637;28;3881;-44
2022/04/23 02:17:39;;;;;;;;;;;;;;;;;;1037625;28;4231;-45
2022/04/23 02:18:11;;;;;;;;;;;;;;;;;;1038485;28;4812;-47
2022/04/23 02:18:41;;;;;;;;;;;;;;;;;;1035829;28;3888;-46
2022/04/23 02:19:13;;;;;;;;;;;;;;;;;;1035657;28;3814;-44
2022/04/23 02:19:43;;;;;;;;;;;;;;;;;;1035102;28;4718;-51
2022/04/23 02:20:15;;;;;;;;;;;;;;;;;;1036420;28;3660;-48
2022/04/23 02:20:46;;;;;;;;;;;;;;;;;;1039566;28;3975;-46
2022/04/23 02:21:16;;;;;;;;;;;;;;;;;;1040622;28;3499;-45
2022/04/23 02:21:46;;;;;;;;;;;;;;;;;;1038856;28;5773;-43
2022/04/23 02:22:17;;;;;;;;;;;;;;;;;;1040686;28;3674;-44
2022/04/23 02:22:47;;;;;;;;;;;;;;;;;;1037398;28;4270;-44
2022/04/23 02:23:18;;;;;;;;;;;;;;;;;;1037807;28;3864;-47
2022/04/23 02:23:48;;;;;;;;;;;;;;;;;;1039462;28;4055;-42
2022/04/23 02:24:18;;;;;;;;;;;;;;;;;;1039626;28;3717;-46
2022/04/23 02:24:49;;;;;;;;;;;;;;;;;;1036801;28;3922;-45
2022/04/23 02:25:20;;;;;;;;;;;;;;;;;;1038587;28;3477;-47
2022/04/23 02:25:50;;;;;;;;;;;;;;;;;;1037815;28;4235;-51
2022/04/23 02:26:20;;;;;;;;;;;;;;;;;;1039114;28;3445;-46
2022/04/23 02:26:51;;;;;;;;;;;;;;;;;;1039295;28;3958;-45
2022/04/23 02:27:21;;;;;;;;;;;;;;;;;;1040191;28;4483;-49
2022/04/23 02:27:51;;;;;;;;;;;;;;;;;;1039418;28;3869;-44
2022/04/23 02:28:22;;;;;;;;;;;;;;;;;;1037105;28;3945;-50
2022/04/23 02:28:52;;;;;;;;;;;;;;;;;;1038172;28;3969;-50
2022/04/23 02:29:22;;;;;;;;;;;;;;;;;;1043016;28;3885;-46
2022/04/23 02:29:53;;;;;;;;;;;;;;;;;;1042409;28;4322;-47
2022/04/23 02:30:24;;;;;;;;;;;;;;;;;;1044138;28;3851;-43
2022/04/23 02:30:54;;;;;;;;;;;;;;;;;;1042074;28;4403;-43
2022/04/23 02:31:24;;;;;;;;;;;;;;;;;;1039959;28;4363;-45
2022/04/23 02:31:55;;;;;;;;;;;;;;;;;;1038848;28;4444;-43
2022/04/23 02:32:25;;;;;;;;;;;;;;;;;;1038368;28;3998;-45
2022/04/23 02:32:55;;;;;;;;;;;;;;;;;;1037988;28;3958;-47
2022/04/23 02:33:25;;;;;;;;;;;;;;;;;;1039768;28;3485;-45
2022/04/23 02:33:57;;;;;;;;;;;;;;;;;;1039280;28;4574;-45
2022/04/23 02:34:27;;;;;;;;;;;;;;;;;;1041061;28;3729;-48
2022/04/23 02:34:57;;;;;;;;;;;;;;;;;;1036982;28;4418;-43
2022/04/23 02:35:28;;;;;;;;;;;;;;;;;;1039357;28;3659;-44
2022/04/23 02:35:58;;;;;;;;;;;;;;;;;;1038677;28;4159;-44
2022/04/23 02:36:28;;;;;;;;;;;;;;;;;;1036346;28;3796;-47
2022/04/23 02:36:59;;;;;;;;;;;;;;;;;;1034836;28;4785;-48
2022/04/23 02:37:31;;;;;;;;;;;;;;;;;;1034859;28;5148;-45
2022/04/23 02:38:04;;;;;;;;;;;;;;;;;;1036859;28;3901;-48
2022/04/23 02:38:35;;;;;;;;;;;;;;;;;;1035534;28;3439;-43
2022/04/23 02:39:06;;;;;;;;;;;;;;;;;;1035759;28;3838;-45
2022/04/23 02:39:36;;;;;;;;;;;;;;;;;;1036827;28;5068;-44
2022/04/23 02:40:10;;;;;;;;;;;;;;;;;;1038679;28;3685;-45
2022/04/23 02:40:40;;;;;;;;;;;;;;;;;;1034254;28;4476;-47
2022/04/23 02:41:10;;;;;;;;;;;;;;;;;;1037802;28;3925;-44
2022/04/23 02:41:41;;;;;;;;;;;;;;;;;;1038592;28;4231;-44
2022/04/23 02:42:11;;;;;;;;;;;;;;;;;;1039915;28;4021;-44
2022/04/23 02:42:42;;;;;;;;;;;;;;;;;;1034566;28;4078;-47
2022/04/23 02:43:12;;;;;;;;;;;;;;;;;;1036421;28;4711;-47
2022/04/23 02:43:43;;;;;;;;;;;;;;;;;;1034612;28;4310;-48
2022/04/23 02:44:15;;;;;;;;;;;;;;;;;;1035317;28;5494;-42
2022/04/23 02:44:45;;;;;;;;;;;;;;;;;;1038283;28;4784;-42
2022/04/23 02:45:16;;;;;;;;;;;;;;;;;;1039618;28;3998;-43
2022/04/23 02:45:46;;;;;;;;;;;;;;;;;;1038241;28;4449;-43
2022/04/23 02:46:16;;;;;;;;;;;;;;;;;;1040094;28;3544;-46
2022/04/23 02:47:00;;;;;;;;;;;;;;;;;;1037551;28;4533;-43
2022/04/23 02:47:40;;;;;;;;;;;;;;;;;;1038449;28;3837;-48
2022/04/23 02:48:11;;;;;;;;;;;;;;;;;;1038903;28;3819;-43
2022/04/23 02:48:41;;;;;;;;;;;;;;;;;;1038572;28;4237;-45
2022/04/23 02:49:12;;;;;;;;;;;;;;;;;;1035899;28;6217;-49
2022/04/23 02:49:42;;;;;;;;;;;;;;;;;;1035632;28;4230;-49
2022/04/23 02:50:13;;;;;;;;;;;;;;;;;;1034866;28;3827;-46
2022/04/23 02:50:44;;;;;;;;;;;;;;;;;;1037924;28;4264;-45
2022/04/23 02:51:16;;;;;;;;;;;;;;;;;;1044680;28;3784;-44
2022/04/23 02:51:46;;;;;;;;;;;;;;;;;;1042240;28;4093;-41
2022/04/23 02:52:16;;;;;;;;;;;;;;;;;;1045230;28;4233;-44
2022/04/23 02:52:47;;;;;;;;;;;;;;;;;;1037458;28;4268;-47
2022/04/23 02:53:17;;;;;;;;;;;;;;;;;;1039983;28;3589;-45
2022/04/23 02:53:47;;;;;;;;;;;;;;;;;;1037003;28;3816;-45
2022/04/23 02:54:18;;;;;;;;;;;;;;;;;;1039770;28;3877;-44
2022/04/23 02:54:50;;;;;;;;;;;;;;;;;;1038117;28;4029;-45
2022/04/23 02:55:21;;;;;;;;;;;;;;;;;;1039043;28;3522;-49
2022/04/23 02:55:52;;;;;;;;;;;;;;;;;;1038815;28;3873;-44
2022/04/23 02:56:22;;;;;;;;;;;;;;;;;;1039114;28;3737;-46
2022/04/23 02:56:54;;;;;;;;;;;;;;;;;;1038502;28;4262;-45
2022/04/23 02:57:24;;;;;;;;;;;;;;;;;;1036305;28;4245;-43
2022/04/23 02:57:56;;;;;;;;;;;;;;;;;;1035081;28;4017;-48
2022/04/23 02:58:27;;;;;;;;;;;;;;;;;;1036368;28;3857;-45
2022/04/23 02:58:58;;;;;;;;;;;;;;;;;;1033990;28;4030;-44
2022/04/23 02:59:29;;;;;;;;;;;;;;;;;;1039884;28;3686;-47
2022/04/23 02:59:59;;;;;;;;;;;;;;;;;;1038404;28;3920;-46
2022/04/23 03:00:30;;;;;;;;;;;;;;;;;;1038967;28;4618;-44
2022/04/23 03:01:00;;;;;;;;;;;;;;;;;;1037035;28;3997;-43
2022/04/23 03:01:31;;;;;;;;;;;;;;;;;;1039784;28;3900;-47
2022/04/23 03:02:01;;;;;;;;;;;;;;;;;;1038584;28;3942;-45
2022/04/23 03:02:36;;;;;;;;;;;;;;;;;;1039850;28;3810;-46
2022/04/23 03:03:07;;;;;;;;;;;;;;;;;;1039029;28;4592;-49
2022/04/23 03:03:38;;;;;;;;;;;;;;;;;;1037507;28;3922;-47
2022/04/23 03:04:10;;;;;;;;;;;;;;;;;;1035317;28;3758;-48
2022/04/23 03:04:40;;;;;;;;;;;;;;;;;;1034291;28;3875;-45
2022/04/23 03:05:11;;;;;;;;;;;;;;;;;;1034976;28;4259;-46
2022/04/23 03:05:42;;;;;;;;;;;;;;;;;;1037966;28;4033;-47
2022/04/23 03:06:14;;;;;;;;;;;;;;;;;;1037767;28;3882;-46
2022/04/23 03:06:45;;;;;;;;;;;;;;;;;;1039111;28;4457;-47
2022/04/23 03:07:15;;;;;;;;;;;;;;;;;;1039068;28;3575;-46
2022/04/23 03:07:47;;;;;;;;;;;;;;;;;;1039338;28;4153;-51
2022/04/23 03:08:25;;;;;;;;;;;;;;;;;;1038926;28;4014;-44
2022/04/23 03:08:56;;;;;;;;;;;;;;;;;;1039917;28;3827;-44
2022/04/23 03:09:26;;;;;;;;;;;;;;;;;;1037820;28;3869;-49
2022/04/23 03:09:56;;;;;;;;;;;;;;;;;;1037029;28;4068;-43
2022/04/23 03:10:30;;;;;;;;;;;;;;;;;;1038265;28;6444;-46
2022/04/23 03:11:00;;;;;;;;;;;;;;;;;;1038280;28;4318;-45
2022/04/23 03:11:31;;;;;;;;;;;;;;;;;;1038335;28;4495;-41
2022/04/23 03:12:01;;;;;;;;;;;;;;;;;;1038353;28;4018;-47
2022/04/23 03:12:31;;;;;;;;;;;;;;;;;;1038307;28;3768;-47
2022/04/23 03:13:01;;;;;;;;;;;;;;;;;;1038847;28;4418;-46
2022/04/23 03:13:34;;;;;;;;;;;;;;;;;;1038475;28;4151;-43
2022/04/23 03:14:04;;;;;;;;;;;;;;;;;;1036749;28;6184;-43
2022/04/23 03:14:34;;;;;;;;;;;;;;;;;;1038054;28;3899;-46
2022/04/23 03:15:06;;;;;;;;;;;;;;;;;;1037333;28;4059;-45
2022/04/23 03:15:36;;;;;;;;;;;;;;;;;;1035760;28;3437;-43
2022/04/23 03:16:07;;;;;;;;;;;;;;;;;;1032900;28;3960;-45
2022/04/23 03:16:37;;;;;;;;;;;;;;;;;;1035374;28;3907;-44
2022/04/23 03:17:07;;;;;;;;;;;;;;;;;;1034394;28;3715;-46
2022/04/23 03:17:39;;;;;;;;;;;;;;;;;;1036970;28;4072;-44
2022/04/23 03:18:10;;;;;;;;;;;;;;;;;;1038903;28;4044;-45
2022/04/23 03:18:40;;;;;;;;;;;;;;;;;;1030348;28;4150;-46
2022/04/23 03:19:10;;;;;;;;;;;;;;;;;;1032104;28;3830;-45
2022/04/23 03:19:41;;;;;;;;;;;;;;;;;;1029790;28;4049;-45
2022/04/23 03:20:12;;;;;;;;;;;;;;;;;;1031679;28;3769;-45
2022/04/23 03:20:44;;;;;;;;;;;;;;;;;;1037347;28;3807;-47
2022/04/23 03:21:14;;;;;;;;;;;;;;;;;;1039490;28;3485;-43
2022/04/23 03:21:44;;;;;;;;;;;;;;;;;;1038615;28;4038;-43
2022/04/23 03:22:15;;;;;;;;;;;;;;;;;;1039329;28;4040;-46
2022/04/23 03:22:45;;;;;;;;;;;;;;;;;;1039435;28;3895;-48
2022/04/23 03:23:16;;;;;;;;;;;;;;;;;;1038848;28;3400;-47
2022/04/23 03:23:46;;;;;;;;;;;;;;;;;;1035424;28;3879;-49
2022/04/23 03:24:16;;;;;;;;;;;;;;;;;;1038854;28;3345;-46
2022/04/23 03:24:47;;;;;;;;;;;;;;;;;;1038299;28;4577;-43
2022/04/23 03:25:17;;;;;;;;;;;;;;;;;;1035057;28;5906;-45
2022/04/23 03:25:47;;;;;;;;;;;;;;;;;;1032863;28;4148;-44
2022/04/23 03:26:17;;;;;;;;;;;;;;;;;;1030725;28;4270;-50
2022/04/23 03:26:48;;;;;;;;;;;;;;;;;;1027506;28;3954;-44
2022/04/23 03:27:19;;;;;;;;;;;;;;;;;;1032096;28;3624;-47
2022/04/23 03:27:49;;;;;;;;;;;;;;;;;;1030211;28;3798;-43
2022/04/23 03:28:20;;;;;;;;;;;;;;;;;;1035915;28;3726;-45
2022/04/23 03:28:50;;;;;;;;;;;;;;;;;;1037814;28;4559;-44
2022/04/23 03:29:21;;;;;;;;;;;;;;;;;;1037026;28;3663;-43
2022/04/23 03:29:51;;;;;;;;;;;;;;;;;;1037111;28;3808;-45
2022/04/23 03:30:21;;;;;;;;;;;;;;;;;;1038129;28;3473;-46
2022/04/23 03:30:52;;;;;;;;;;;;;;;;;;1037356;28;4292;-43
2022/04/23 03:31:22;;;;;;;;;;;;;;;;;;1038115;28;3500;-46
2022/04/23 03:31:52;;;;;;;;;;;;;;;;;;1037105;28;6257;-49
2022/04/23 03:32:23;;;;;;;;;;;;;;;;;;1037794;28;4078;-43
2022/04/23 03:32:53;;;;;;;;;;;;;;;;;;1036743;28;4094;-41
2022/04/23 03:33:23;;;;;;;;;;;;;;;;;;1034021;28;3690;-43
2022/04/23 03:33:54;;;;;;;;;;;;;;;;;;1035183;28;4100;-42
2022/04/23 03:34:24;;;;;;;;;;;;;;;;;;1034742;28;3730;-47
2022/04/23 03:34:54;;;;;;;;;;;;;;;;;;1034503;28;3932;-47
2022/04/23 03:35:26;;;;;;;;;;;;;;;;;;1038692;28;3566;-43
2022/04/23 03:35:56;;;;;;;;;;;;;;;;;;1038112;28;4153;-46